sensor_id;sensor_type;location;lat;lon;timestamp;pressure;altitude;pressure_sealevel;temperature;humidity
52307;BME280;38249;48.920;12.882;2022-07-18T00:01:15;97839.28;;;21.67;33.98
52307;BME280;38249;48.920;12.882;2022-07-18T00:03:42;97844.75;;;21.67;34.13
52307;BME280;38249;48.920;12.882;2022-07-18T00:06:10;97837.47;;;21.71;34.51
52307;BME280;38249;48.920;12.882;2022-07-18T00:08:36;97844.00;;;21.54;34.37
52307;BME280;38249;48.920;12.882;2022-07-18T00:11:03;97845.59;;;21.55;34.41
52307;BME280;38249;48.920;12.882;2022-07-18T00:13:30;97844.22;;;21.62;34.22
52307;BME280;38249;48.920;12.882;2022-07-18T00:15:56;97851.75;;;21.52;34.79
52307;BME280;38249;48.920;12.882;2022-07-18T00:18:23;97846.97;;;21.49;34.38
52307;BME280;38249;48.920;12.882;2022-07-18T00:20:49;97838.81;;;21.49;34.26
52307;BME280;38249;48.920;12.882;2022-07-18T00:23:17;97835.78;;;21.67;34.46
52307;BME280;38249;48.920;12.882;2022-07-18T00:25:44;97845.50;;;21.52;34.78
52307;BME280;38249;48.920;12.882;2022-07-18T00:28:10;97848.81;;;21.45;34.77
52307;BME280;38249;48.920;12.882;2022-07-18T00:30:37;97842.53;;;21.45;34.72
52307;BME280;38249;48.920;12.882;2022-07-18T00:33:03;97848.81;;;21.45;34.79
52307;BME280;38249;48.920;12.882;2022-07-18T00:35:30;97850.28;;;21.42;35.03
52307;BME280;38249;48.920;12.882;2022-07-18T00:37:57;97848.50;;;21.34;35.31
52307;BME280;38249;48.920;12.882;2022-07-18T00:40:24;97848.59;;;21.50;35.25
52307;BME280;38249;48.920;12.882;2022-07-18T00:42:51;97843.13;;;21.38;35.39
52307;BME280;38249;48.920;12.882;2022-07-18T00:45:18;97847.28;;;21.32;35.73
52307;BME280;38249;48.920;12.882;2022-07-18T00:47:44;97848.06;;;21.32;35.56
52307;BME280;38249;48.920;12.882;2022-07-18T00:50:11;97852.13;;;21.38;35.84
52307;BME280;38249;48.920;12.882;2022-07-18T00:52:38;97851.56;;;21.33;36.03
52307;BME280;38249;48.920;12.882;2022-07-18T00:55:05;97854.28;;;21.33;36.23
52307;BME280;38249;48.920;12.882;2022-07-18T00:57:33;97852.56;;;21.40;36.25
52307;BME280;38249;48.920;12.882;2022-07-18T01:00:00;97851.38;;;21.26;36.46
52307;BME280;38249;48.920;12.882;2022-07-18T01:02:45;97849.44;;;21.26;36.31
52307;BME280;38249;48.920;12.882;2022-07-18T01:05:11;97857.06;;;21.20;36.24
52307;BME280;38249;48.920;12.882;2022-07-18T01:07:38;97856.25;;;21.20;36.24
52307;BME280;38249;48.920;12.882;2022-07-18T01:10:05;97856.00;;;21.25;36.46
52307;BME280;38249;48.920;12.882;2022-07-18T01:12:33;97846.47;;;21.31;36.57
52307;BME280;38249;48.920;12.882;2022-07-18T01:15:00;97857.41;;;21.19;36.80
52307;BME280;38249;48.920;12.882;2022-07-18T01:17:26;97857.66;;;21.14;36.73
52307;BME280;38249;48.920;12.882;2022-07-18T01:19:53;97862.66;;;21.12;37.25
52307;BME280;38249;48.920;12.882;2022-07-18T01:22:20;97861.47;;;21.25;37.17
52307;BME280;38249;48.920;12.882;2022-07-18T01:24:47;97852.22;;;21.14;37.46
52307;BME280;38249;48.920;12.882;2022-07-18T01:27:14;97865.47;;;21.15;37.44
52307;BME280;38249;48.920;12.882;2022-07-18T01:29:42;97858.00;;;21.12;37.70
52307;BME280;38249;48.920;12.882;2022-07-18T01:32:09;97858.34;;;21.11;37.52
52307;BME280;38249;48.920;12.882;2022-07-18T01:34:36;97855.75;;;21.02;37.74
52307;BME280;38249;48.920;12.882;2022-07-18T01:37:03;97854.28;;;21.04;37.54
52307;BME280;38249;48.920;12.882;2022-07-18T01:39:32;97852.66;;;21.16;37.42
52307;BME280;38249;48.920;12.882;2022-07-18T01:41:59;97848.56;;;21.10;37.58
52307;BME280;38249;48.920;12.882;2022-07-18T01:44:27;97855.75;;;21.02;37.65
52307;BME280;38249;48.920;12.882;2022-07-18T01:46:53;97852.56;;;21.00;37.74
52307;BME280;38249;48.920;12.882;2022-07-18T01:49:21;97851.19;;;21.06;37.98
52307;BME280;38249;48.920;12.882;2022-07-18T01:51:50;97851.31;;;21.10;38.24
52307;BME280;38249;48.920;12.882;2022-07-18T01:54:19;97855.28;;;21.12;38.20
52307;BME280;38249;48.920;12.882;2022-07-18T01:56:47;97849.25;;;21.06;38.33
52307;BME280;38249;48.920;12.882;2022-07-18T01:59:14;97851.47;;;20.88;38.51
52307;BME280;38249;48.920;12.882;2022-07-18T02:01:41;97851.34;;;20.85;38.47
52307;BME280;38249;48.920;12.882;2022-07-18T02:04:07;97848.19;;;20.83;38.44
52307;BME280;38249;48.920;12.882;2022-07-18T02:06:34;97844.22;;;20.80;38.49
52307;BME280;38249;48.920;12.882;2022-07-18T02:09:00;97852.97;;;20.86;38.55
52307;BME280;38249;48.920;12.882;2022-07-18T02:11:27;97852.16;;;20.85;38.40
52307;BME280;38249;48.920;12.882;2022-07-18T02:13:55;97854.50;;;20.99;38.59
52307;BME280;38249;48.920;12.882;2022-07-18T02:16:21;97846.16;;;20.80;38.57
52307;BME280;38249;48.920;12.882;2022-07-18T02:18:48;97846.50;;;20.78;38.57
52307;BME280;38249;48.920;12.882;2022-07-18T02:21:14;97851.50;;;20.76;38.75
52307;BME280;38249;48.920;12.882;2022-07-18T02:23:42;97855.09;;;20.80;38.75
52307;BME280;38249;48.920;12.882;2022-07-18T02:26:09;97855.09;;;20.80;38.85
52307;BME280;38249;48.920;12.882;2022-07-18T02:28:36;97852.19;;;20.73;38.72
52307;BME280;38249;48.920;12.882;2022-07-18T02:31:05;97849.19;;;20.91;38.63
52307;BME280;38249;48.920;12.882;2022-07-18T02:33:32;97844.00;;;20.73;38.74
52307;BME280;38249;48.920;12.882;2022-07-18T02:35:59;97849.44;;;20.73;38.85
52307;BME280;38249;48.920;12.882;2022-07-18T02:38:25;97855.09;;;20.68;39.07
52307;BME280;38249;48.920;12.882;2022-07-18T02:40:52;97855.47;;;20.66;39.03
52307;BME280;38249;48.920;12.882;2022-07-18T02:43:18;97859.44;;;20.57;39.12
52307;BME280;38249;48.920;12.882;2022-07-18T02:45:45;97851.25;;;20.57;38.87
52307;BME280;38249;48.920;12.882;2022-07-18T02:48:13;97845.03;;;20.68;38.76
52307;BME280;38249;48.920;12.882;2022-07-18T02:50:39;97853.06;;;20.52;38.86
52307;BME280;38249;48.920;12.882;2022-07-18T02:53:06;97853.72;;;20.49;38.87
52307;BME280;38249;48.920;12.882;2022-07-18T02:55:32;97854.53;;;20.50;38.80
52307;BME280;38249;48.920;12.882;2022-07-18T02:57:59;97855.34;;;20.50;38.46
52307;BME280;38249;48.920;12.882;2022-07-18T03:00:25;97867.78;;;20.51;38.52
52307;BME280;38249;48.920;12.882;2022-07-18T03:02:52;97852.28;;;20.52;38.62
52307;BME280;38249;48.920;12.882;2022-07-18T03:05:20;97853.44;;;20.63;38.57
52307;BME280;38249;48.920;12.882;2022-07-18T03:07:46;97863.94;;;20.52;38.73
52307;BME280;38249;48.920;12.882;2022-07-18T03:10:13;97855.34;;;20.50;38.77
52307;BME280;38249;48.920;12.882;2022-07-18T03:12:40;97864.50;;;20.58;38.88
52307;BME280;38249;48.920;12.882;2022-07-18T03:15:08;97856.47;;;20.49;38.93
52307;BME280;38249;48.920;12.882;2022-07-18T03:17:34;97862.69;;;20.38;39.13
52307;BME280;38249;48.920;12.882;2022-07-18T03:20:02;97857.47;;;20.45;39.33
52307;BME280;38249;48.920;12.882;2022-07-18T03:22:31;97858.28;;;20.45;39.26
52307;BME280;38249;48.920;12.882;2022-07-18T03:24:59;97866.00;;;20.31;39.13
52307;BME280;38249;48.920;12.882;2022-07-18T03:27:25;97866.00;;;20.31;38.89
52307;BME280;38249;48.920;12.882;2022-07-18T03:29:52;97872.22;;;20.31;39.15
52307;BME280;38249;48.920;12.882;2022-07-18T03:32:18;97873.34;;;20.30;39.18
52307;BME280;38249;48.920;12.882;2022-07-18T03:34:46;97871.78;;;20.42;38.96
52307;BME280;38249;48.920;12.882;2022-07-18T03:37:12;97873.34;;;20.30;38.88
52307;BME280;38249;48.920;12.882;2022-07-18T03:39:40;97869.84;;;20.42;38.55
52307;BME280;38249;48.920;12.882;2022-07-18T03:42:07;97874.50;;;20.29;38.50
52307;BME280;38249;48.920;12.882;2022-07-18T03:44:33;97882.00;;;20.32;38.63
52307;BME280;38249;48.920;12.882;2022-07-18T03:47:00;97881.66;;;20.34;38.54
52307;BME280;38249;48.920;12.882;2022-07-18T03:49:26;97884.72;;;20.32;38.70
52307;BME280;38249;48.920;12.882;2022-07-18T03:51:53;97881.19;;;20.32;38.64
52307;BME280;38249;48.920;12.882;2022-07-18T03:54:20;97892.78;;;20.29;38.47
52307;BME280;38249;48.920;12.882;2022-07-18T03:56:48;97880.06;;;20.45;38.11
52307;BME280;38249;48.920;12.882;2022-07-18T03:59:15;97880.84;;;20.33;37.99
52307;BME280;38249;48.920;12.882;2022-07-18T04:01:41;97881.31;;;20.36;38.26
52307;BME280;38249;48.920;12.882;2022-07-18T04:04:08;97879.81;;;20.38;38.43
52307;BME280;38249;48.920;12.882;2022-07-18T04:06:34;97881.44;;;20.39;38.46
52307;BME280;38249;48.920;12.882;2022-07-18T04:09:02;97888.25;;;20.45;38.36
52307;BME280;38249;48.920;12.882;2022-07-18T04:11:30;97883.34;;;20.39;38.54
52307;BME280;38249;48.920;12.882;2022-07-18T04:13:58;97883.94;;;20.57;38.28
52307;BME280;38249;48.920;12.882;2022-07-18T04:16:24;97888.91;;;20.42;38.47
52307;BME280;38249;48.920;12.882;2022-07-18T04:18:51;97881.19;;;20.44;38.73
52307;BME280;38249;48.920;12.882;2022-07-18T04:21:17;97886.97;;;20.43;38.69
52307;BME280;38249;48.920;12.882;2022-07-18T04:23:44;97881.88;;;20.41;38.82
52307;BME280;38249;48.920;12.882;2022-07-18T04:26:10;97882.56;;;20.38;38.68
52307;BME280;38249;48.920;12.882;2022-07-18T04:28:37;97882.22;;;20.40;38.44
52307;BME280;38249;48.920;12.882;2022-07-18T04:31:05;97885.06;;;20.56;38.43
52307;BME280;38249;48.920;12.882;2022-07-18T04:33:31;97879.59;;;20.43;38.59
52307;BME280;38249;48.920;12.882;2022-07-18T04:35:58;97879.59;;;20.43;38.72
52307;BME280;38249;48.920;12.882;2022-07-18T04:38:24;97883.25;;;20.47;38.60
52307;BME280;38249;48.920;12.882;2022-07-18T04:40:51;97878.69;;;20.51;38.80
52307;BME280;38249;48.920;12.882;2022-07-18T04:43:17;97871.00;;;20.54;38.72
52307;BME280;38249;48.920;12.882;2022-07-18T04:45:44;97884.28;;;20.55;38.67
52307;BME280;38249;48.920;12.882;2022-07-18T04:48:12;97874.19;;;20.68;38.32
52307;BME280;38249;48.920;12.882;2022-07-18T04:50:38;97884.38;;;20.59;38.64
52307;BME280;38249;48.920;12.882;2022-07-18T04:53:05;97881.75;;;20.62;38.62
52307;BME280;38249;48.920;12.882;2022-07-18T04:55:31;97880.00;;;20.66;38.61
52307;BME280;38249;48.920;12.882;2022-07-18T04:57:58;97877.72;;;20.68;38.67
52307;BME280;38249;48.920;12.882;2022-07-18T05:00:26;97877.47;;;20.86;38.89
52307;BME280;38249;48.920;12.882;2022-07-18T05:02:54;97885.28;;;20.87;38.79
52307;BME280;38249;48.920;12.882;2022-07-18T05:05:23;97880.16;;;20.98;38.75
52307;BME280;38249;48.920;12.882;2022-07-18T05:07:50;97875.19;;;20.88;39.21
52307;BME280;38249;48.920;12.882;2022-07-18T05:10:19;97879.72;;;20.96;39.23
52307;BME280;38249;48.920;12.882;2022-07-18T05:12:48;97886.06;;;21.00;39.43
52307;BME280;38249;48.920;12.882;2022-07-18T05:15:17;97891.50;;;21.00;39.35
52307;BME280;38249;48.920;12.882;2022-07-18T05:17:44;97884.84;;;20.98;39.14
52307;BME280;38249;48.920;12.882;2022-07-18T05:20:12;97874.72;;;21.11;39.14
52307;BME280;38249;48.920;12.882;2022-07-18T05:22:41;97882.75;;;21.07;39.75
52307;BME280;38249;48.920;12.882;2022-07-18T05:25:09;97881.72;;;21.12;39.65
52307;BME280;38249;48.920;12.882;2022-07-18T05:27:36;97882.19;;;21.14;39.53
52307;BME280;38249;48.920;12.882;2022-07-18T05:30:05;97878.41;;;21.31;39.90
52307;BME280;38249;48.920;12.882;2022-07-18T05:32:32;97880.69;;;21.29;40.07
52307;BME280;38249;48.920;12.882;2022-07-18T05:34:58;97876.56;;;21.35;40.17
52307;BME280;38249;48.920;12.882;2022-07-18T05:37:25;97873.00;;;21.47;39.72
52307;BME280;38249;48.920;12.882;2022-07-18T05:39:53;97877.47;;;21.67;39.94
52307;BME280;38249;48.920;12.882;2022-07-18T05:42:20;97882.06;;;21.63;40.30
52307;BME280;38249;48.920;12.882;2022-07-18T05:44:46;97869.06;;;21.72;40.41
52307;BME280;38249;48.920;12.882;2022-07-18T05:47:13;97874.78;;;21.83;40.18
52307;BME280;38249;48.920;12.882;2022-07-18T05:49:39;97880.97;;;21.96;39.83
52307;BME280;38249;48.920;12.882;2022-07-18T05:52:07;97877.59;;;22.15;39.90
52307;BME280;38249;48.920;12.882;2022-07-18T05:54:33;97882.78;;;22.20;40.22
52307;BME280;38249;48.920;12.882;2022-07-18T05:57:01;97887.31;;;22.44;40.08
52307;BME280;38249;48.920;12.882;2022-07-18T05:59:28;97885.19;;;22.38;40.57
52307;BME280;38249;48.920;12.882;2022-07-18T06:01:54;97881.94;;;22.48;40.26
52307;BME280;38249;48.920;12.882;2022-07-18T06:04:21;97886.06;;;22.58;40.25
52307;BME280;38249;48.920;12.882;2022-07-18T06:06:47;97882.00;;;22.67;39.99
52307;BME280;38249;48.920;12.882;2022-07-18T06:09:15;97881.53;;;22.81;40.50
52307;BME280;38249;48.920;12.882;2022-07-18T06:11:42;97874.72;;;22.91;40.48
52307;BME280;38249;48.920;12.882;2022-07-18T06:14:10;97874.78;;;23.11;40.21
52307;BME280;38249;48.920;12.882;2022-07-18T06:16:37;97882.81;;;23.03;40.13
52307;BME280;38249;48.920;12.882;2022-07-18T06:19:03;97879.53;;;23.14;40.01
52307;BME280;38249;48.920;12.882;2022-07-18T06:21:30;97883.22;;;23.21;40.21
52307;BME280;38249;48.920;12.882;2022-07-18T06:23:56;97881.84;;;23.31;39.71
52307;BME280;38249;48.920;12.882;2022-07-18T06:26:23;97882.44;;;23.40;39.88
52307;BME280;38249;48.920;12.882;2022-07-18T06:28:49;97882.66;;;23.51;39.47
52307;BME280;38249;48.920;12.882;2022-07-18T06:31:17;97882.34;;;23.76;38.39
52307;BME280;38249;48.920;12.882;2022-07-18T06:33:44;97890.50;;;23.72;39.00
52307;BME280;38249;48.920;12.882;2022-07-18T06:36:12;97887.63;;;23.85;39.21
52307;BME280;38249;48.920;12.882;2022-07-18T06:38:39;97887.09;;;23.98;38.35
52307;BME280;38249;48.920;12.882;2022-07-18T06:41:06;97892.22;;;24.00;37.72
52307;BME280;38249;48.920;12.882;2022-07-18T06:43:33;97880.66;;;24.10;36.92
52307;BME280;38249;48.920;12.882;2022-07-18T06:45:59;97890.59;;;24.19;36.01
52307;BME280;38249;48.920;12.882;2022-07-18T06:48:27;97887.34;;;24.36;34.49
52307;BME280;38249;48.920;12.882;2022-07-18T06:50:58;97893.38;;;24.22;33.29
52307;BME280;38249;48.920;12.882;2022-07-18T06:53:24;97891.78;;;24.21;32.58
52307;BME280;38249;48.920;12.882;2022-07-18T06:55:51;97893.34;;;24.19;32.03
52307;BME280;38249;48.920;12.882;2022-07-18T06:58:17;97894.16;;;24.23;32.73
52307;BME280;38249;48.920;12.882;2022-07-18T07:00:44;97895.16;;;24.34;33.08
52307;BME280;38249;48.920;12.882;2022-07-18T07:03:10;97903.47;;;24.41;33.60
52307;BME280;38249;48.920;12.882;2022-07-18T07:05:38;97896.38;;;24.60;33.33
52307;BME280;38249;48.920;12.882;2022-07-18T07:08:05;97895.75;;;24.47;32.52
52307;BME280;38249;48.920;12.882;2022-07-18T07:10:31;97899.72;;;24.49;32.82
52307;BME280;38249;48.920;12.882;2022-07-18T07:12:58;97891.69;;;24.60;33.57
52307;BME280;38249;48.920;12.882;2022-07-18T07:15:24;97898.91;;;24.72;33.12
52307;BME280;38249;48.920;12.882;2022-07-18T07:17:51;97902.69;;;24.87;33.25
52307;BME280;38249;48.920;12.882;2022-07-18T07:20:18;97901.19;;;24.93;33.34
52307;BME280;38249;48.920;12.882;2022-07-18T07:22:49;97896.41;;;25.13;33.53
52307;BME280;38249;48.920;12.882;2022-07-18T07:25:16;97889.59;;;25.03;32.92
52307;BME280;38249;48.920;12.882;2022-07-18T07:27:43;97887.25;;;25.05;32.90
52307;BME280;38249;48.920;12.882;2022-07-18T07:30:11;97891.72;;;25.17;31.75
52307;BME280;38249;48.920;12.882;2022-07-18T07:32:39;97892.25;;;25.27;33.07
52307;BME280;38249;48.920;12.882;2022-07-18T07:35:08;97894.38;;;26.05;31.59
52307;BME280;38249;48.920;12.882;2022-07-18T07:37:36;97891.03;;;26.22;31.21
52307;BME280;38249;48.920;12.882;2022-07-18T07:40:05;97899.66;;;26.65;30.47
52307;BME280;38249;48.920;12.882;2022-07-18T07:42:32;97894.69;;;25.62;32.88
52307;BME280;38249;48.920;12.882;2022-07-18T07:44:59;97903.31;;;25.64;33.34
52307;BME280;38249;48.920;12.882;2022-07-18T07:47:26;97897.16;;;25.74;32.80
52307;BME280;38249;48.920;12.882;2022-07-18T07:49:54;97894.53;;;25.85;32.76
52307;BME280;38249;48.920;12.882;2022-07-18T07:52:20;97900.59;;;25.98;31.97
52307;BME280;38249;48.920;12.882;2022-07-18T07:54:48;97895.00;;;25.94;31.64
52307;BME280;38249;48.920;12.882;2022-07-18T07:57:16;97890.22;;;26.22;31.81
52307;BME280;38249;48.920;12.882;2022-07-18T07:59:43;97894.53;;;26.19;31.42
52307;BME280;38249;48.920;12.882;2022-07-18T08:02:09;97899.72;;;26.31;32.16
52307;BME280;38249;48.920;12.882;2022-07-18T08:04:37;97891.63;;;26.49;31.19
52307;BME280;38249;48.920;12.882;2022-07-18T08:07:03;97892.03;;;26.51;31.79
52307;BME280;38249;48.920;12.882;2022-07-18T08:09:30;97888.97;;;26.60;30.94
52307;BME280;38249;48.920;12.882;2022-07-18T08:11:56;97895.25;;;26.61;30.91
52307;BME280;38249;48.920;12.882;2022-07-18T08:14:24;97889.53;;;26.80;30.93
52307;BME280;38249;48.920;12.882;2022-07-18T08:16:51;97890.34;;;26.84;31.08
52307;BME280;38249;48.920;12.882;2022-07-18T08:19:17;97893.91;;;26.88;30.97
52307;BME280;38249;48.920;12.882;2022-07-18T08:21:44;97893.22;;;27.02;30.95
52307;BME280;38249;48.920;12.882;2022-07-18T08:24:10;97889.41;;;27.25;31.74
52307;BME280;38249;48.920;12.882;2022-07-18T08:26:37;97892.22;;;27.32;31.42
52307;BME280;38249;48.920;12.882;2022-07-18T08:29:04;97886.38;;;27.45;29.90
52307;BME280;38249;48.920;12.882;2022-07-18T08:31:33;97893.53;;;27.67;29.33
52307;BME280;38249;48.920;12.882;2022-07-18T08:33:59;97886.84;;;27.65;28.61
52307;BME280;38249;48.920;12.882;2022-07-18T08:36:26;97892.41;;;27.79;28.83
52307;BME280;38249;48.920;12.882;2022-07-18T08:38:52;97881.03;;;27.95;29.25
52307;BME280;38249;48.920;12.882;2022-07-18T08:41:21;97887.41;;;28.31;30.28
52307;BME280;38249;48.920;12.882;2022-07-18T08:43:48;97883.84;;;28.20;28.67
52307;BME280;38249;48.920;12.882;2022-07-18T08:46:18;97887.00;;;28.22;28.18
52307;BME280;38249;48.920;12.882;2022-07-18T08:48:47;97894.47;;;28.29;28.21
52307;BME280;38249;48.920;12.882;2022-07-18T08:51:15;97898.44;;;28.31;27.78
52307;BME280;38249;48.920;12.882;2022-07-18T08:53:43;97895.66;;;28.28;27.00
52307;BME280;38249;48.920;12.882;2022-07-18T08:56:12;97895.28;;;28.40;27.79
52307;BME280;38249;48.920;12.882;2022-07-18T08:58:39;97901.22;;;28.60;27.24
52307;BME280;38249;48.920;12.882;2022-07-18T09:01:06;97894.47;;;28.83;26.79
52307;BME280;38249;48.920;12.882;2022-07-18T09:03:32;97897.22;;;29.01;27.85
52307;BME280;38249;48.920;12.882;2022-07-18T09:06:05;97890.81;;;29.47;27.49
52307;BME280;38249;48.920;12.882;2022-07-18T09:08:32;97899.50;;;29.42;27.49
52307;BME280;38249;48.920;12.882;2022-07-18T09:11:00;97888.81;;;29.55;26.10
52307;BME280;38249;48.920;12.882;2022-07-18T09:13:35;97895.50;;;29.57;26.08
52307;BME280;38249;48.920;12.882;2022-07-18T09:16:04;97886.91;;;29.34;25.12
52307;BME280;38249;48.920;12.882;2022-07-18T09:18:33;97885.69;;;29.42;24.91
52307;BME280;38249;48.920;12.882;2022-07-18T09:21:01;97883.97;;;29.73;25.48
52307;BME280;38249;48.920;12.882;2022-07-18T09:23:31;97886.03;;;30.25;23.97
52307;BME280;38249;48.920;12.882;2022-07-18T09:25:58;97881.34;;;30.19;24.01
52307;BME280;38249;48.920;12.882;2022-07-18T09:28:25;97880.34;;;30.50;25.05
52307;BME280;38249;48.920;12.882;2022-07-18T09:30:52;97876.91;;;30.81;24.48
52307;BME280;38249;48.920;12.882;2022-07-18T09:33:19;97882.97;;;31.10;24.09
52307;BME280;38249;48.920;12.882;2022-07-18T09:35:49;97881.75;;;31.11;23.70
52307;BME280;38249;48.920;12.882;2022-07-18T09:38:17;97881.75;;;31.11;23.81
52307;BME280;38249;48.920;12.882;2022-07-18T09:40:46;97875.47;;;31.07;23.02
52307;BME280;38249;48.920;12.882;2022-07-18T09:43:14;97881.34;;;31.13;23.18
52307;BME280;38249;48.920;12.882;2022-07-18T09:45:43;97883.72;;;31.45;22.90
52307;BME280;38249;48.920;12.882;2022-07-18T09:48:15;97878.34;;;31.96;22.92
52307;BME280;38249;48.920;12.882;2022-07-18T09:50:44;97879.41;;;32.06;22.68
52307;BME280;38249;48.920;12.882;2022-07-18T09:53:16;97877.69;;;32.39;23.11
52307;BME280;38249;48.920;12.882;2022-07-18T09:55:48;97882.66;;;32.99;21.81
52307;BME280;38249;48.920;12.882;2022-07-18T09:58:17;97889.22;;;33.49;21.91
52307;BME280;38249;48.920;12.882;2022-07-18T10:00:44;97889.72;;;33.64;21.27
52307;BME280;38249;48.920;12.882;2022-07-18T10:03:11;97887.44;;;33.58;20.50
52307;BME280;38249;48.920;12.882;2022-07-18T10:05:39;97891.63;;;34.23;20.64
52307;BME280;38249;48.920;12.882;2022-07-18T10:08:07;97895.97;;;34.57;19.78
52307;BME280;38249;48.920;12.882;2022-07-18T10:10:35;97895.44;;;34.79;19.08
52307;BME280;38249;48.920;12.882;2022-07-18T10:13:04;97892.50;;;35.57;18.31
52307;BME280;38249;48.920;12.882;2022-07-18T10:15:32;97893.84;;;37.16;17.01
52307;BME280;38249;48.920;12.882;2022-07-18T10:18:00;97895.00;;;38.44;16.14
52307;BME280;38249;48.920;12.882;2022-07-18T10:20:32;97902.91;;;40.03;14.55
52307;BME280;38249;48.920;12.882;2022-07-18T10:23:06;97893.84;;;41.59;13.40
52307;BME280;38249;48.920;12.882;2022-07-18T10:25:34;97898.63;;;43.62;12.87
52307;BME280;38249;48.920;12.882;2022-07-18T10:28:06;97902.75;;;45.85;12.18
52307;BME280;38249;48.920;12.882;2022-07-18T10:30:35;97906.25;;;47.12;10.14
52307;BME280;38249;48.920;12.882;2022-07-18T10:33:03;97904.84;;;47.35;9.60
52307;BME280;38249;48.920;12.882;2022-07-18T10:35:58;97911.25;;;48.57;8.83
52307;BME280;38249;48.920;12.882;2022-07-18T10:38:25;97908.97;;;48.31;9.21
52307;BME280;38249;48.920;12.882;2022-07-18T10:41:16;97913.00;;;48.36;8.38
52307;BME280;38249;48.920;12.882;2022-07-18T10:43:44;97902.06;;;48.89;7.69
52307;BME280;38249;48.920;12.882;2022-07-18T10:46:12;97903.44;;;49.59;8.10
52307;BME280;38249;48.920;12.882;2022-07-18T10:48:52;97902.00;;;49.14;6.72
52307;BME280;38249;48.920;12.882;2022-07-18T10:51:23;97893.66;;;49.86;7.84
52307;BME280;38249;48.920;12.882;2022-07-18T10:54:11;97893.66;;;49.86;7.84
52307;BME280;38249;48.920;12.882;2022-07-18T10:57:06;97892.75;;;52.46;6.48
52307;BME280;38249;48.920;12.882;2022-07-18T10:59:35;97884.34;;;52.40;6.10
52307;BME280;38249;48.920;12.882;2022-07-18T11:02:04;97874.41;;;52.41;6.46
52307;BME280;38249;48.920;12.882;2022-07-18T11:04:35;97870.38;;;51.03;5.99
52307;BME280;38249;48.920;12.882;2022-07-18T11:07:04;97855.75;;;50.58;6.65
52307;BME280;38249;48.920;12.882;2022-07-18T11:09:34;97861.31;;;49.19;5.91
52307;BME280;38249;48.920;12.882;2022-07-18T11:12:21;97861.38;;;49.32;5.90
52307;BME280;38249;48.920;12.882;2022-07-18T11:15:12;97857.28;;;49.93;5.10
52307;BME280;38249;48.920;12.882;2022-07-18T11:18:02;97858.91;;;49.88;5.54
52307;BME280;38249;48.920;12.882;2022-07-18T11:20:37;97859.34;;;49.92;5.63
52307;BME280;38249;48.920;12.882;2022-07-18T11:23:14;97862.00;;;50.57;5.52
52307;BME280;38249;48.920;12.882;2022-07-18T11:25:41;97856.03;;;51.29;5.60
52307;BME280;38249;48.920;12.882;2022-07-18T11:28:08;97852.31;;;51.63;5.88
52307;BME280;38249;48.920;12.882;2022-07-18T11:30:37;97848.31;;;52.45;6.42
52307;BME280;38249;48.920;12.882;2022-07-18T11:33:04;97854.47;;;53.09;5.59
52307;BME280;38249;48.920;12.882;2022-07-18T11:35:31;97859.88;;;52.68;5.50
52307;BME280;38249;48.920;12.882;2022-07-18T11:38:03;97851.19;;;52.45;5.48
52307;BME280;38249;48.920;12.882;2022-07-18T11:40:30;97847.88;;;52.33;5.63
52307;BME280;38249;48.920;12.882;2022-07-18T11:42:57;97856.91;;;52.89;5.07
52307;BME280;38249;48.920;12.882;2022-07-18T11:45:23;97847.91;;;52.85;5.69
52307;BME280;38249;48.920;12.882;2022-07-18T11:47:52;97846.81;;;52.59;5.30
52307;BME280;38249;48.920;12.882;2022-07-18T11:50:34;97844.97;;;52.62;5.57
52307;BME280;38249;48.920;12.882;2022-07-18T11:53:01;97839.38;;;52.49;5.36
52307;BME280;38249;48.920;12.882;2022-07-18T11:55:34;97836.38;;;53.53;5.62
52307;BME280;38249;48.920;12.882;2022-07-18T11:58:07;97842.13;;;54.63;5.70
52307;BME280;38249;48.920;12.882;2022-07-18T12:00:34;97845.16;;;54.01;4.94
52307;BME280;38249;48.920;12.882;2022-07-18T12:03:02;97842.25;;;53.16;5.29
52307;BME280;38249;48.920;12.882;2022-07-18T12:05:31;97832.97;;;50.93;5.84
52307;BME280;38249;48.920;12.882;2022-07-18T12:07:57;97833.03;;;50.66;6.58
52307;BME280;38249;48.920;12.882;2022-07-18T12:10:24;97823.25;;;50.61;6.23
52307;BME280;38249;48.920;12.882;2022-07-18T12:12:51;97825.75;;;51.55;5.97
52307;BME280;38249;48.920;12.882;2022-07-18T12:15:17;97841.31;;;52.25;5.73
52307;BME280;38249;48.920;12.882;2022-07-18T12:17:45;97829.66;;;52.59;5.98
52307;BME280;38249;48.920;12.882;2022-07-18T12:20:15;97832.91;;;53.08;5.20
52307;BME280;38249;48.920;12.882;2022-07-18T12:23:03;97834.84;;;53.44;5.46
52307;BME280;38249;48.920;12.882;2022-07-18T12:25:57;97829.69;;;53.50;5.12
52307;BME280;38249;48.920;12.882;2022-07-18T12:28:26;97825.59;;;52.91;5.48
52307;BME280;38249;48.920;12.882;2022-07-18T12:30:53;97827.34;;;52.50;6.15
52307;BME280;38249;48.920;12.882;2022-07-18T12:33:21;97817.94;;;52.34;6.42
52307;BME280;38249;48.920;12.882;2022-07-18T12:35:56;97813.81;;;51.85;6.01
52307;BME280;38249;48.920;12.882;2022-07-18T12:38:23;97808.47;;;50.97;5.96
52307;BME280;38249;48.920;12.882;2022-07-18T12:40:51;97805.63;;;50.84;6.51
52307;BME280;38249;48.920;12.882;2022-07-18T12:43:23;97809.94;;;50.77;6.18
52307;BME280;38249;48.920;12.882;2022-07-18T12:45:51;97805.31;;;49.86;6.77
52307;BME280;38249;48.920;12.882;2022-07-18T12:48:17;97799.53;;;48.57;7.70
52307;BME280;38249;48.920;12.882;2022-07-18T12:50:44;97793.47;;;47.48;7.27
52307;BME280;38249;48.920;12.882;2022-07-18T12:53:13;97792.25;;;47.02;7.74
52307;BME280;38249;48.920;12.882;2022-07-18T12:55:40;97778.75;;;46.25;8.66
52307;BME280;38249;48.920;12.882;2022-07-18T12:58:06;97777.28;;;44.88;9.32